Time;durP1;ratioP1;P1;durP2;ratioP2;P2;SDS_P1;SDS_P2;PMS_P1;PMS_P2;Temp;Humidity;BMP_temperature;BMP_pressure;BME280_temperature;BME280_humidity;BME280_pressure;Samples;Min_cycle;Max_cycle;Signal;HPM_P1;HPM_P2
2020/12/23 00:01:19;;;;;;;9.83;4.62;;;;;;;2.25;85.38;98236.85;1742299;81;21128;-63
2020/12/23 00:03:47;;;;;;;10.58;5.87;;;;;;;2.28;85.33;98240.52;1742400;82;21159;-66
2020/12/23 00:06:15;;;;;;;8.05;4.33;;;;;;;2.26;85.53;98241.04;1742657;82;21278;-63
2020/12/23 00:08:43;;;;;;;8.20;4.80;;;;;;;2.32;85.25;98245.39;1742340;82;21148;-64
2020/12/23 00:11:16;;;;;;;9.95;5.08;;;;;;;2.25;85.35;98244.09;1742286;82;21168;-64
2020/12/23 00:13:45;;;;;;;9.68;5.08;;;;;;;2.26;85.76;98243.16;1742599;82;21278;-64
2020/12/23 00:16:13;;;;;;;10.93;5.50;;;;;;;2.25;86.00;98257.34;1742652;81;21159;-64
2020/12/23 00:18:41;;;;;;;11.00;6.45;;;;;;;2.25;85.90;98254.34;1742607;81;21385;-64
2020/12/23 00:21:09;;;;;;;7.83;5.10;;;;;;;2.22;86.41;98251.09;1742866;81;21289;-64
2020/12/23 00:23:37;;;;;;;11.48;3.98;;;;;;;2.21;86.68;98244.34;1742509;81;21289;-63
2020/12/23 00:26:14;;;;;;;6.62;4.12;;;;;;;2.25;86.69;98248.38;1742424;82;21163;-63
2020/12/23 00:28:42;;;;;;;7.35;5.20;;;;;;;2.29;86.59;98248.13;1742695;82;21293;-64
2020/12/23 00:31:15;;;;;;;6.80;5.05;;;;;;;2.36;86.30;98249.44;1742801;81;21282;-66
2020/12/23 00:33:44;;;;;;;8.03;5.45;;;;;;;2.41;86.38;98254.77;1742630;82;21302;-66
2020/12/23 00:36:16;;;;;;;10.70;5.67;;;;;;;2.46;86.06;98254.03;1742722;81;21186;-69
2020/12/23 00:38:44;;;;;;;9.10;4.95;;;;;;;2.50;85.78;98256.34;1743271;82;21159;-69
2020/12/23 00:41:12;;;;;;;6.97;4.25;;;;;;;2.45;85.96;98250.67;1742918;82;21556;-64
2020/12/23 00:43:40;;;;;;;9.60;4.60;;;;;;;2.50;86.15;98256.80;1742578;81;21163;-64
2020/12/23 00:46:13;;;;;;;7.55;4.85;;;;;;;2.51;86.34;98258.01;1741635;81;21294;-63
2020/12/23 00:48:43;;;;;;;7.53;4.67;;;;;;;2.44;87.09;98263.56;1739909;81;21667;-65
2020/12/23 00:51:15;;;;;;;7.78;4.30;;;;;;;2.37;87.74;98262.60;1740061;81;21301;-64
2020/12/23 00:53:44;;;;;;;10.05;6.65;;;;;;;2.32;87.83;98262.05;1739704;81;21592;-65
2020/12/23 00:56:13;;;;;;;12.93;5.80;;;;;;;2.31;88.26;98260.84;1739699;82;21281;-65
2020/12/23 00:58:41;;;;;;;6.80;4.47;;;;;;;2.29;88.58;98262.23;1739683;81;21270;-64
2020/12/23 01:01:09;;;;;;;10.23;6.15;;;;;;;2.30;88.44;98257.91;1739751;82;21302;-64
2020/12/23 01:03:39;;;;;;;10.88;6.15;;;;;;;2.29;88.64;98258.84;1738613;82;21687;-63
2020/12/23 01:06:11;;;;;;;10.43;5.25;;;;;;;2.17;89.16;98246.24;1739718;82;21293;-64
2020/12/23 01:08:41;;;;;;;8.20;5.17;;;;;;;2.20;89.23;98249.91;1739555;82;21681;-66
2020/12/23 01:11:11;;;;;;;9.05;3.80;;;;;;;2.19;89.25;98253.38;1739653;82;21735;-64
2020/12/23 01:13:40;;;;;;;7.17;4.87;;;;;;;2.28;88.63;98243.91;1739438;82;21584;-66
2020/12/23 01:16:09;;;;;;;9.85;4.75;;;;;;;2.29;88.58;98250.70;1739531;82;21179;-64
2020/12/23 01:18:37;;;;;;;7.28;4.95;;;;;;;2.09;89.18;98243.27;1739798;82;21663;-63
2020/12/23 01:21:08;;;;;;;6.33;4.47;;;;;;;2.17;89.13;98244.12;1739536;82;21128;-64
2020/12/23 01:23:36;;;;;;;7.87;4.55;;;;;;;2.12;89.64;98237.97;1739868;82;21278;-64
2020/12/23 01:26:05;;;;;;;7.72;4.87;;;;;;;1.98;90.06;98235.34;1739710;82;21281;-64
2020/12/23 01:28:33;;;;;;;6.17;4.40;;;;;;;2.06;89.91;98228.08;1739692;82;21309;-64
2020/12/23 01:31:01;;;;;;;8.50;4.97;;;;;;;2.04;89.83;98238.84;1739775;82;21285;-64
2020/12/23 01:33:29;;;;;;;8.48;4.25;;;;;;;2.04;89.85;98240.58;1739740;82;21143;-64
2020/12/23 01:35:58;;;;;;;10.82;4.92;;;;;;;2.04;90.02;98241.41;1740054;82;21293;-64
2020/12/23 01:38:27;;;;;;;6.42;4.78;;;;;;;1.87;90.73;98233.34;1740209;81;21286;-65
2020/12/23 01:41:00;;;;;;;7.75;5.53;;;;;;;1.94;90.74;98227.45;1740005;82;21167;-64
2020/12/23 01:43:31;;;;;;;9.68;5.62;;;;;;;1.91;90.84;98230.98;1739934;82;21180;-64
2020/12/23 01:46:00;;;;;;;7.67;4.97;;;;;;;1.97;90.56;98231.13;1740102;80;21168;-65
2020/12/23 01:48:32;;;;;;;5.55;3.92;;;;;;;1.98;90.95;98225.55;1742442;82;21156;-64
2020/12/23 01:51:02;;;;;;;9.35;4.97;;;;;;;2.07;90.45;98225.03;1742370;81;21155;-66
2020/12/23 01:53:31;;;;;;;10.90;5.12;;;;;;;2.15;90.04;98222.42;1715419;82;21187;-63
2020/12/23 01:56:01;;;;;;;9.08;4.67;;;;;;;2.22;89.72;98225.02;1742371;81;21137;-64
2020/12/23 01:58:29;;;;;;;10.15;5.83;;;;;;;2.30;89.63;98217.73;1742561;82;21290;-64
2020/12/23 02:00:59;;;;;;;8.25;4.75;;;;;;;2.21;90.10;98212.31;1742586;81;21270;-64
2020/12/23 02:03:27;;;;;;;11.15;7.20;;;;;;;2.17;90.31;98218.06;1742565;82;21285;-64
2020/12/23 02:05:56;;;;;;;12.07;6.72;;;;;;;2.10;90.73;98210.31;1742411;81;21151;-64
2020/12/23 02:08:24;;;;;;;9.65;5.25;;;;;;;2.16;90.71;98209.99;1742535;82;21167;-64
2020/12/23 02:10:52;;;;;;;9.40;6.05;;;;;;;2.22;90.33;98207.08;1742481;81;21226;-63
2020/12/23 02:13:39;;;;;;;8.65;6.40;;;;;;;2.24;90.48;98210.84;1742657;81;21289;-66
2020/12/23 02:19:08;;;;;;;10.65;5.37;;;;;;;2.35;89.68;98203.39;1711121;83;21585;-66
2020/12/23 02:21:37;;;;;;;12.58;5.53;;;;;;;2.39;89.30;98199.28;1695435;85;21169;-65
2020/12/23 02:24:05;;;;;;;15.00;6.40;;;;;;;2.39;89.21;98202.30;1711174;84;21517;-66
2020/12/23 02:26:33;;;;;;;11.85;5.22;;;;;;;2.38;88.96;98195.52;1695472;84;21161;-65
2020/12/23 02:29:01;;;;;;;10.00;4.80;;;;;;;2.35;89.22;98195.25;1711118;84;21148;-65
2020/12/23 02:31:29;;;;;;;9.73;5.33;;;;;;;2.39;88.95;98198.45;1695575;84;21213;-65
2020/12/23 02:33:57;;;;;;;9.48;5.45;;;;;;;2.40;88.82;98192.42;1710887;84;21303;-66
2020/12/23 02:36:25;;;;;;;9.38;4.78;;;;;;;2.37;88.98;98199.02;1695324;85;21165;-66
2020/12/23 02:38:53;;;;;;;9.03;5.33;;;;;;;2.33;89.11;98200.09;1711067;84;21151;-65
2020/12/23 02:41:21;;;;;;;8.85;4.47;;;;;;;2.26;89.39;98207.28;1695713;85;21166;-65
2020/12/23 02:43:49;;;;;;;9.13;4.80;;;;;;;2.32;89.04;98209.97;1710930;83;21210;-64
2020/12/23 02:46:19;;;;;;;10.40;5.60;;;;;;;2.31;89.19;98209.59;1695521;85;21161;-64
2020/12/23 02:48:47;;;;;;;8.18;5.45;;;;;;;2.29;89.25;98213.54;1715296;83;21132;-64
2020/12/23 02:51:15;;;;;;;5.97;4.55;;;;;;;2.09;90.76;98212.98;1695772;84;21228;-64
2020/12/23 02:53:43;;;;;;;10.03;5.65;;;;;;;2.14;90.78;98205.39;1711408;82;21675;-64
2020/12/23 02:56:10;;;;;;;8.45;5.00;;;;;;;2.07;91.20;98214.33;1695633;85;21165;-64
2020/12/23 02:58:39;;;;;;;8.30;5.28;;;;;;;2.02;91.31;98221.47;1711194;82;21143;-64
2020/12/23 03:01:06;;;;;;;8.70;4.92;;;;;;;2.09;91.05;98215.54;1695644;84;21161;-66
2020/12/23 03:03:34;;;;;;;13.85;5.58;;;;;;;2.08;91.01;98221.12;1715493;83;21181;-65
2020/12/23 03:06:02;;;;;;;10.38;5.90;;;;;;;1.99;91.44;98210.53;1695844;85;21146;-65
2020/12/23 03:08:30;;;;;;;9.33;5.37;;;;;;;2.10;91.06;98215.44;1711631;83;21148;-64
2020/12/23 03:10:58;;;;;;;10.80;5.92;;;;;;;2.11;90.98;98211.97;1695862;84;21170;-64
2020/12/23 03:13:26;;;;;;;12.63;6.45;;;;;;;2.13;90.61;98212.73;1711036;83;21176;-64
2020/12/23 03:15:54;;;;;;;12.70;5.62;;;;;;;2.13;90.68;98221.70;1695650;84;21170;-64
2020/12/23 03:18:21;;;;;;;5.65;4.25;;;;;;;2.18;90.30;98218.89;1711176;82;21125;-63
2020/12/23 03:20:49;;;;;;;9.13;5.22;;;;;;;2.22;90.52;98223.73;1695899;85;21359;-64
2020/12/23 03:23:17;;;;;;;8.35;5.70;;;;;;;2.27;90.12;98223.03;1710930;83;21129;-63
2020/12/23 03:25:45;;;;;;;9.00;4.28;;;;;;;2.20;90.79;98226.02;1695436;85;21169;-65
2020/12/23 03:28:13;;;;;;;8.10;5.50;;;;;;;2.31;90.25;98229.64;1710648;84;21164;-65
2020/12/23 03:30:41;;;;;;;12.43;7.53;;;;;;;2.25;90.82;98235.12;1694997;85;21704;-64
2020/12/23 03:33:10;;;;;;;7.33;4.55;;;;;;;2.35;90.29;98238.81;1710462;82;21648;-64
2020/12/23 03:35:37;;;;;;;10.63;5.53;;;;;;;2.36;90.34;98240.47;1695130;84;21708;-64
2020/12/23 03:38:05;;;;;;;9.25;4.95;;;;;;;2.41;90.15;98244.52;1710379;82;21160;-64
2020/12/23 03:40:33;;;;;;;7.72;5.33;;;;;;;2.39;89.91;98244.14;1694840;85;21154;-65
2020/12/23 03:43:01;;;;;;;10.08;5.50;;;;;;;2.46;89.82;98250.19;1710705;84;21160;-64
2020/12/23 03:45:29;;;;;;;9.50;5.20;;;;;;;2.44;89.92;98248.19;1694856;85;21185;-64
2020/12/23 03:47:58;;;;;;;6.00;5.05;;;;;;;2.41;89.94;98250.92;1710696;84;21278;-64
2020/12/23 03:50:26;;;;;;;7.72;5.08;;;;;;;2.41;89.81;98245.34;1694957;84;21340;-64
2020/12/23 03:52:53;;;;;;;7.55;5.30;;;;;;;2.27;90.37;98238.41;1710494;83;21121;-64
2020/12/23 03:55:21;;;;;;;8.28;5.15;;;;;;;2.27;90.43;98243.53;1694992;85;21162;-64
2020/12/23 03:57:49;;;;;;;9.33;4.90;;;;;;;2.36;89.98;98254.56;1710829;84;21204;-64
2020/12/23 04:00:17;;;;;;;10.35;5.62;;;;;;;2.42;89.76;98254.66;1694964;84;21300;-64
2020/12/23 04:02:46;;;;;;;7.75;4.85;;;;;;;2.28;90.62;98252.88;1710407;83;21546;-65
2020/12/23 04:05:14;;;;;;;10.35;6.12;;;;;;;2.36;90.38;98264.82;1694968;84;21323;-65
2020/12/23 04:07:42;;;;;;;6.65;5.40;;;;;;;2.25;90.76;98263.30;1710419;83;21590;-64
2020/12/23 04:10:11;;;;;;;7.90;4.55;;;;;;;2.32;90.57;98262.50;1695002;85;21378;-64
2020/12/23 04:12:39;;;;;;;12.30;5.83;;;;;;;2.30;90.69;98260.02;1710422;84;21176;-64
2020/12/23 04:15:09;;;;;;;10.45;5.65;;;;;;;2.24;90.96;98263.37;1694834;85;21190;-64
2020/12/23 04:17:38;;;;;;;9.25;4.70;;;;;;;2.26;90.54;98266.66;1710440;84;21144;-65
2020/12/23 04:20:11;;;;;;;10.23;5.22;;;;;;;2.26;90.65;98268.78;1700000;84;21177;-65
2020/12/23 04:22:40;;;;;;;10.85;5.17;;;;;;;2.33;90.39;98273.13;1718584;82;21120;-66
2020/12/23 04:25:08;;;;;;;12.37;5.28;;;;;;;2.38;89.91;98277.53;1700295;84;21161;-64
2020/12/23 04:27:37;;;;;;;9.70;5.67;;;;;;;2.35;90.04;98274.69;1718466;83;21151;-64
2020/12/23 04:30:07;;;;;;;12.50;6.20;;;;;;;2.28;90.55;98264.86;1700261;84;21178;-64
2020/12/23 04:32:36;;;;;;;11.43;4.95;;;;;;;2.23;90.81;98263.83;1718530;83;21132;-66
2020/12/23 04:35:05;;;;;;;9.85;5.72;;;;;;;2.29;90.50;98275.04;1700147;84;21170;-64
2020/12/23 04:37:34;;;;;;;11.30;5.15;;;;;;;2.34;90.08;98282.00;1718506;83;21164;-64
2020/12/23 04:40:05;;;;;;;8.08;5.03;;;;;;;2.39;89.85;98285.59;1700328;84;21169;-64
2020/12/23 04:42:33;;;;;;;9.45;4.75;;;;;;;2.42;89.67;98287.98;1718350;83;21569;-65
2020/12/23 04:45:04;;;;;;;8.23;4.12;;;;;;;2.39;89.88;98294.56;1700376;84;21165;-64
2020/12/23 04:47:36;;;;;;;10.38;5.42;;;;;;;2.36;90.33;98292.18;1713506;83;21176;-64
2020/12/23 04:50:04;;;;;;;10.53;5.65;;;;;;;2.36;90.25;98304.55;1700172;84;21169;-64
2020/12/23 04:52:35;;;;;;;8.98;4.45;;;;;;;2.32;90.61;98299.66;1718404;83;21575;-64
2020/12/23 04:55:06;;;;;;;8.80;5.50;;;;;;;2.37;90.21;98307.94;1700004;84;21164;-64
2020/12/23 04:57:39;;;;;;;12.15;4.80;;;;;;;2.41;89.92;98305.58;1718427;83;21168;-64
2020/12/23 05:00:08;;;;;;;13.55;5.15;;;;;;;2.33;90.94;98308.53;1700273;84;21169;-65
2020/12/23 05:02:36;;;;;;;9.63;4.95;;;;;;;2.38;90.44;98316.80;1718514;83;21152;-64
2020/12/23 05:05:06;;;;;;;7.75;5.12;;;;;;;2.38;90.31;98314.24;1698434;84;21165;-65
2020/12/23 05:07:34;;;;;;;8.00;4.22;;;;;;;2.43;90.03;98323.42;1718728;83;21237;-64
2020/12/23 05:10:06;;;;;;;9.15;5.35;;;;;;;2.44;89.92;98309.70;1700174;84;21160;-65
2020/12/23 05:12:34;;;;;;;7.28;4.58;;;;;;;2.35;90.66;98307.17;1718512;83;21128;-64
2020/12/23 05:15:08;;;;;;;7.37;4.95;;;;;;;2.34;91.07;98307.63;1700224;84;21141;-64
2020/12/23 05:17:36;;;;;;;6.28;5.15;;;;;;;2.42;90.43;98305.92;1718466;82;21160;-66
2020/12/23 05:20:07;;;;;;;8.90;4.83;;;;;;;2.46;90.10;98314.27;1700163;84;21193;-64
2020/12/23 05:22:36;;;;;;;6.87;5.40;;;;;;;2.49;90.05;98303.39;1718423;83;21151;-65
2020/12/23 05:25:06;;;;;;;8.40;5.10;;;;;;;2.47;90.48;98303.11;1700120;84;21570;-66
2020/12/23 05:27:34;;;;;;;4.90;3.87;;;;;;;2.45;90.73;98302.39;1718429;83;21160;-64
2020/12/23 05:30:03;;;;;;;8.15;4.72;;;;;;;2.50;90.51;98310.18;1674397;84;21185;-66
2020/12/23 05:32:35;;;;;;;6.53;4.65;;;;;;;2.52;90.48;98307.09;1718767;82;21116;-64
2020/12/23 05:35:04;;;;;;;4.45;3.35;;;;;;;2.51;90.39;98301.59;1718492;83;21143;-64
2020/12/23 05:37:32;;;;;;;5.95;4.00;;;;;;;2.51;90.89;98297.74;1700320;84;22293;-64
2020/12/23 05:40:01;;;;;;;11.40;6.05;;;;;;;2.53;90.49;98304.88;1718317;83;21151;-64
2020/12/23 05:42:31;;;;;;;7.72;4.47;;;;;;;2.53;90.82;98297.19;1700300;84;21154;-64
2020/12/23 05:44:59;;;;;;;5.37;3.70;;;;;;;2.57;90.90;98303.00;1718252;82;21282;-67
2020/12/23 05:47:28;;;;;;;8.48;5.50;;;;;;;2.61;90.56;98305.28;1700506;84;21169;-64
2020/12/23 05:49:56;;;;;;;10.63;6.70;;;;;;;2.60;90.82;98301.54;1718421;82;21707;-65
2020/12/23 05:52:26;;;;;;;8.35;4.83;;;;;;;2.56;90.67;98303.45;1700283;84;21236;-64
2020/12/23 05:54:54;;;;;;;8.75;4.72;;;;;;;2.62;90.79;98309.50;1718524;83;21147;-64
2020/12/23 05:57:23;;;;;;;8.88;4.83;;;;;;;2.70;90.61;98305.23;1700432;84;21157;-64
2020/12/23 05:59:52;;;;;;;7.17;4.33;;;;;;;2.73;90.22;98304.60;1718301;83;21774;-64
2020/12/23 06:02:22;;;;;;;10.55;4.75;;;;;;;2.75;89.89;98301.97;1672989;84;21169;-66
2020/12/23 06:04:52;;;;;;;9.60;4.37;;;;;;;2.81;90.06;98301.16;1718330;83;21589;-71
2020/12/23 06:07:24;;;;;;;9.75;5.08;;;;;;;2.84;90.06;98296.33;1697299;84;21185;-64
2020/12/23 06:09:55;;;;;;;5.28;3.80;;;;;;;2.77;90.44;98297.56;1718523;83;21155;-63
2020/12/23 06:12:23;;;;;;;12.55;4.25;;;;;;;2.78;90.35;98292.81;1718374;83;21135;-66
2020/12/23 06:15:00;;;;;;;8.98;5.75;;;;;;;2.76;90.10;98290.32;1700131;84;22395;-69
2020/12/23 06:17:30;;;;;;;12.20;5.62;;;;;;;2.68;90.08;98286.56;1718588;82;21151;-66
2020/12/23 06:20:00;;;;;;;12.90;6.47;;;;;;;2.59;89.81;98285.33;1700100;84;21169;-65
2020/12/23 06:22:29;;;;;;;7.97;5.42;;;;;;;2.68;89.81;98293.80;1718203;82;21581;-63
2020/12/23 06:25:00;;;;;;;8.65;5.20;;;;;;;2.65;90.38;98290.55;1699990;84;21174;-64
2020/12/23 06:27:32;;;;;;;8.45;5.42;;;;;;;2.70;90.25;98290.67;1718316;82;21710;-66
2020/12/23 06:30:01;;;;;;;11.60;5.47;;;;;;;2.71;90.05;98292.34;1700163;84;21607;-64
2020/12/23 06:32:35;;;;;;;12.15;6.03;;;;;;;2.73;90.07;98294.34;1718282;83;21579;-66
2020/12/23 06:35:04;;;;;;;9.55;6.55;;;;;;;2.78;89.87;98301.78;1700033;84;21165;-64
2020/12/23 06:37:34;;;;;;;12.33;6.35;;;;;;;2.77;89.97;98304.80;1718270;83;21552;-67
2020/12/23 06:40:11;;;;;;;11.80;6.35;;;;;;;2.76;90.21;98312.60;1700041;84;21237;-66
2020/12/23 06:43:09;;;;;;;29.98;10.10;;;;;;;2.59;91.06;98304.55;1718185;83;21273;-67
2020/12/23 06:45:42;;;;;;;8.43;5.83;;;;;;;2.60;91.18;98298.53;1683254;85;21369;-67
2020/12/23 06:48:18;;;;;;;8.13;5.45;;;;;;;2.54;91.32;98286.48;1703650;82;21140;-65
2020/12/23 06:50:46;;;;;;;14.47;6.42;;;;;;;2.59;91.04;98306.29;1707416;84;21164;-64
2020/12/23 06:53:19;;;;;;;11.28;5.80;;;;;;;2.66;90.71;98312.72;1707419;83;21198;-66
2020/12/23 06:55:47;;;;;;;10.93;6.08;;;;;;;2.70;90.39;98308.63;1700342;83;21581;-65
2020/12/23 06:58:42;;;;;;;12.45;6.03;;;;;;;2.72;90.44;98308.07;1707049;84;21605;-66
2020/12/23 07:01:17;;;;;;;11.78;5.25;;;;;;;2.75;90.51;98310.48;1707113;84;21184;-66
2020/12/23 07:03:47;;;;;;;13.38;7.03;;;;;;;2.73;90.27;98308.45;1707178;83;21144;-66
2020/12/23 07:06:32;;;;;;;12.13;8.63;;;;;;;2.74;90.27;98309.28;1707049;84;21152;-66
2020/12/23 07:09:04;;;;;;;11.40;7.10;;;;;;;2.66;91.78;98303.30;1707571;84;21137;-66
2020/12/23 07:11:36;;;;;;;6.25;4.10;;;;;;;2.72;91.51;98304.70;1707180;84;21612;-66
2020/12/23 07:14:05;;;;;;;9.75;4.97;;;;;;;2.76;91.14;98308.27;1707246;84;21164;-69
2020/12/23 07:16:41;;;;;;;18.27;3.65;;;;;;;2.83;90.46;98312.62;1707251;84;21609;-66
2020/12/23 07:19:10;;;;;;;10.93;5.10;;;;;;;2.88;90.14;98319.13;1707274;84;21168;-66
2020/12/23 07:21:39;;;;;;;8.25;4.83;;;;;;;2.93;89.97;98324.00;1687496;84;21167;-66
2020/12/23 07:24:07;;;;;;;9.88;6.05;;;;;;;2.98;90.46;98316.88;1707344;83;21164;-66
2020/12/23 07:26:39;;;;;;;10.93;5.92;;;;;;;2.99;90.25;98319.83;1707194;84;21171;-66
2020/12/23 07:29:10;;;;;;;11.48;5.92;;;;;;;3.04;89.85;98326.78;1707387;84;21159;-64
2020/12/23 07:31:39;;;;;;;15.55;6.12;;;;;;;3.05;89.84;98322.48;1707416;84;21160;-66
2020/12/23 07:34:08;;;;;;;7.92;5.35;;;;;;;3.14;89.70;98320.69;1707239;83;21168;-66
2020/12/23 07:36:36;;;;;;;8.93;4.53;;;;;;;3.14;89.47;98311.70;1687527;84;21156;-66
2020/12/23 07:39:04;;;;;;;9.33;4.95;;;;;;;3.19;89.34;98321.25;1707088;84;21585;-66
2020/12/23 07:41:32;;;;;;;10.40;5.42;;;;;;;3.22;89.33;98325.75;1707401;84;21231;-66
2020/12/23 07:44:00;;;;;;;10.95;5.67;;;;;;;3.30;89.02;98332.55;1707137;83;21596;-66
2020/12/23 07:46:29;;;;;;;9.30;5.30;;;;;;;3.35;88.75;98336.11;1707462;84;21233;-65
2020/12/23 07:48:58;;;;;;;9.55;5.58;;;;;;;3.45;88.76;98341.55;1707682;84;21159;-67
2020/12/23 07:54:13;;;;;;;8.55;6.08;;;;;;;3.53;88.12;98344.50;1679770;83;21148;-65
2020/12/23 07:56:41;;;;;;;9.58;5.87;;;;;;;3.44;88.31;98345.86;1679144;84;21164;-67
2020/12/23 07:59:11;;;;;;;7.78;5.15;;;;;;;3.41;89.02;98329.81;1678970;84;21714;-65
2020/12/23 08:01:42;;;;;;;7.67;5.47;;;;;;;3.52;88.47;98340.27;1678938;85;21215;-66
2020/12/23 08:04:09;;;;;;;9.95;5.65;;;;;;;;;;1678843;85;21580;-67
2020/12/23 08:06:38;;;;;;;15.58;6.17;;;;;;;3.53;88.44;98332.95;1678820;84;21180;-65
2020/12/23 08:09:12;;;;;;;10.35;6.05;;;;;;;3.46;88.57;98323.50;1678756;84;21588;-64
2020/12/23 08:11:40;;;;;;;16.90;8.88;;;;;;;3.56;88.50;98334.05;1678902;84;21171;-66
2020/12/23 08:14:08;;;;;;;10.48;4.75;;;;;;;3.38;89.08;98323.13;1679066;84;21287;-64
2020/12/23 08:16:36;;;;;;;9.70;5.03;;;;;;;3.46;88.52;98331.66;1678947;84;21155;-66
2020/12/23 08:19:04;;;;;;;8.45;5.08;;;;;;;3.57;88.16;98324.98;1678812;84;21161;-64
2020/12/23 08:21:32;;;;;;;13.53;4.47;;;;;;;3.50;88.61;98325.43;1678801;85;21582;-64
2020/12/23 08:23:59;;;;;;;10.03;5.20;;;;;;;3.66;88.09;98327.44;1679137;85;21664;-64
2020/12/23 08:26:28;;;;;;;9.35;4.42;;;;;;;3.55;87.47;98316.52;1678901;84;21168;-64
2020/12/23 08:28:56;;;;;;;10.68;5.72;;;;;;;3.74;87.74;98316.25;1679071;84;21179;-65
2020/12/23 08:31:28;;;;;;;18.00;6.28;;;;;;;3.83;87.18;98318.28;1678840;84;21161;-64
2020/12/23 08:34:03;;;;;;;15.72;7.95;;;;;;;3.73;87.49;98318.02;1678973;84;21612;-65
2020/12/23 08:36:32;;;;;;;10.93;5.72;;;;;;;3.80;87.29;98322.32;1678817;84;21254;-66
2020/12/23 08:39:01;;;;;;;14.78;6.22;;;;;;;3.82;86.90;98327.72;1678865;84;21167;-67
2020/12/23 08:41:40;;;;;;;11.50;7.10;;;;;;;3.81;87.14;98333.77;1672834;85;21130;-66
2020/12/23 08:44:10;;;;;;;10.20;6.22;;;;;;;3.78;87.12;98333.96;1673046;85;21164;-66
2020/12/23 08:46:39;;;;;;;13.68;8.28;;;;;;;3.76;87.05;98333.70;1673260;85;21282;-66
2020/12/23 08:49:07;;;;;;;13.58;6.97;;;;;;;3.60;87.99;98329.09;1672900;85;21303;-64
2020/12/23 08:51:36;;;;;;;13.98;7.30;;;;;;;3.69;87.68;98326.83;1673038;85;21157;-66
2020/12/23 08:54:15;;;;;;;11.83;6.97;;;;;;;3.69;87.54;98317.84;1672978;85;21160;-65
2020/12/23 08:56:48;;;;;;;11.68;6.53;;;;;;;3.67;88.11;98326.08;1673075;85;21655;-66
2020/12/23 08:59:16;;;;;;;10.60;6.70;;;;;;;3.67;87.92;98328.64;1673054;85;21192;-66
2020/12/23 09:01:45;;;;;;;10.80;5.70;;;;;;;3.67;87.90;98313.69;1672967;85;21161;-67
2020/12/23 09:04:13;;;;;;;11.93;5.45;;;;;;;3.56;88.08;98307.08;1672988;85;21173;-66
2020/12/23 09:06:47;;;;;;;9.18;5.53;;;;;;;3.55;87.68;98299.00;1672965;85;21593;-64
2020/12/23 09:09:42;;;;;;;7.80;5.20;;;;;;;3.59;88.23;98287.63;1672872;86;21201;-66
2020/12/23 09:12:20;;;;;;;8.43;5.05;;;;;;;3.53;88.41;98288.84;1661013;86;21623;-65
2020/12/23 09:14:48;;;;;;;10.65;5.53;;;;;;;3.58;88.35;98277.02;1661311;86;21235;-66
2020/12/23 09:17:23;;;;;;;9.73;5.45;;;;;;;3.64;88.21;98283.06;1661314;86;21143;-66
2020/12/23 09:20:03;;;;;;;8.23;5.55;;;;;;;3.75;87.56;98288.38;1661316;86;21201;-66
2020/12/23 09:22:36;;;;;;;11.12;6.95;;;;;;;3.78;87.20;98285.16;1661253;86;21197;-66
2020/12/23 09:25:44;;;;;;;10.13;5.28;;;;;;;3.83;87.45;98288.28;1661091;86;21152;-65
2020/12/23 09:28:15;;;;;;;10.93;4.97;;;;;;;3.83;87.00;98282.31;1684165;84;21617;-66
2020/12/23 09:30:49;;;;;;;11.20;6.42;;;;;;;3.86;87.29;98277.44;1642169;86;21597;-65
2020/12/23 09:33:41;;;;;;;14.90;6.75;;;;;;;3.66;87.43;98275.62;1625423;87;21171;-66
2020/12/23 09:36:10;;;;;;;9.35;5.05;;;;;;;3.75;87.17;98265.25;1655147;86;21210;-66
2020/12/23 09:38:38;;;;;;;11.08;6.75;;;;;;;3.77;87.81;98257.81;1643437;87;21243;-67
2020/12/23 09:41:09;;;;;;;12.70;6.30;;;;;;;3.71;87.80;98254.34;1644422;87;21320;-66
2020/12/23 09:43:38;;;;;;;14.45;9.10;;;;;;;3.79;87.28;98253.88;1644463;87;21308;-66
2020/12/23 09:46:09;;;;;;;11.63;6.50;;;;;;;3.76;87.91;98245.08;1655258;85;21605;-66
2020/12/23 09:48:37;;;;;;;13.28;7.40;;;;;;;3.87;87.20;98231.11;1643655;87;21180;-65
2020/12/23 09:51:06;;;;;;;15.05;6.80;;;;;;;3.80;87.96;98231.13;1631705;87;21196;-64
2020/12/23 09:53:35;;;;;;;12.98;7.58;;;;;;;3.77;88.11;98219.77;1631459;88;21731;-65
2020/12/23 09:56:05;;;;;;;11.57;6.92;;;;;;;3.89;87.96;98209.20;1638117;86;21197;-64
2020/12/23 09:58:33;;;;;;;11.00;6.60;;;;;;;3.84;88.54;98200.48;1631404;88;21354;-72
2020/12/23 10:01:02;;;;;;;10.20;5.03;;;;;;;3.90;88.07;98194.13;1638731;86;21317;-67
2020/12/23 10:03:30;;;;;;;9.03;4.53;;;;;;;4.08;87.56;98198.12;1638477;87;21182;-66
2020/12/23 10:05:58;;;;;;;8.20;4.30;;;;;;;4.10;87.00;98199.67;1631838;88;21192;-65
2020/12/23 10:08:27;;;;;;;8.33;5.60;;;;;;;4.16;86.78;98197.98;1638260;87;21180;-67
2020/12/23 10:10:54;;;;;;;9.00;4.90;;;;;;;4.18;86.50;98197.89;1638274;87;21199;-66
2020/12/23 10:13:22;;;;;;;7.72;5.05;;;;;;;4.26;86.73;98202.92;1638216;86;21183;-66
2020/12/23 10:15:50;;;;;;;8.33;5.08;;;;;;;4.32;86.17;98195.75;1637911;86;21230;-66
2020/12/23 10:18:18;;;;;;;10.00;5.67;;;;;;;4.29;86.01;98194.17;1638193;86;21175;-66
2020/12/23 10:20:46;;;;;;;7.53;4.83;;;;;;;4.28;86.54;98189.49;1638274;86;21184;-64
2020/12/23 10:23:15;;;;;;;9.43;4.95;;;;;;;4.43;86.14;98192.85;1638110;87;21259;-65
2020/12/23 10:25:44;;;;;;;7.12;4.55;;;;;;;4.32;85.95;98189.32;1631568;87;21184;-64
2020/12/23 10:28:11;;;;;;;9.10;4.85;;;;;;;4.41;85.60;98185.68;1631626;88;21184;-64
2020/12/23 10:30:39;;;;;;;9.38;4.65;;;;;;;4.54;85.61;98178.00;1638087;87;21203;-66
2020/12/23 10:33:09;;;;;;;9.13;5.03;;;;;;;4.49;85.82;98171.04;1635524;87;21164;-64
2020/12/23 10:35:37;;;;;;;9.58;6.67;;;;;;;4.58;85.69;98176.88;1631421;87;21179;-66
2020/12/23 10:38:05;;;;;;;10.10;6.17;;;;;;;4.42;86.45;98165.48;1631687;88;21191;-65
2020/12/23 10:40:33;;;;;;;7.05;4.03;;;;;;;4.53;86.62;98167.34;1638192;87;21573;-67
2020/12/23 10:43:03;;;;;;;12.58;5.47;;;;;;;4.61;86.65;98163.35;1631851;88;21169;-66
2020/12/23 10:45:31;;;;;;;10.50;5.40;;;;;;;4.71;86.69;98163.09;1631936;87;21200;-66
2020/12/23 10:47:59;;;;;;;12.50;7.20;;;;;;;4.67;86.14;98151.81;1631809;88;21588;-66
2020/12/23 10:50:27;;;;;;;7.42;4.45;;;;;;;4.74;86.12;98155.20;1631885;88;21284;-66
2020/12/23 10:52:54;;;;;;;12.93;7.65;;;;;;;4.90;85.78;98152.43;1655295;87;21172;-66
2020/12/23 10:55:22;;;;;;;12.65;5.90;;;;;;;4.83;86.12;98147.77;1655226;86;21180;-66
2020/12/23 10:57:52;;;;;;;17.57;7.97;;;;;;;4.82;86.15;98147.42;1655464;87;21254;-65
2020/12/23 11:00:20;;;;;;;10.58;6.40;;;;;;;4.62;86.68;98139.75;1655593;87;21204;-66
2020/12/23 11:02:49;;;;;;;12.68;6.50;;;;;;;4.80;86.06;98117.93;1655307;86;21157;-66
2020/12/23 11:05:17;;;;;;;12.85;8.00;;;;;;;4.90;85.85;98118.98;1654513;86;21176;-66
2020/12/23 11:07:46;;;;;;;12.75;7.62;;;;;;;4.87;86.09;98115.76;1655383;87;21188;-66
2020/12/23 11:10:16;;;;;;;11.78;6.95;;;;;;;4.90;85.22;98109.97;1655443;87;21212;-66
2020/12/23 11:12:46;;;;;;;19.50;7.75;;;;;;;4.90;86.42;98108.69;1655216;86;21236;-66
2020/12/23 11:15:15;;;;;;;14.20;7.17;;;;;;;4.95;87.45;98096.30;1655447;86;21169;-66
2020/12/23 11:17:45;;;;;;;10.72;6.03;;;;;;;5.01;86.21;98090.76;1655548;86;21201;-66
2020/12/23 11:20:13;;;;;;;10.95;6.70;;;;;;;5.09;85.95;98092.34;1655245;87;21184;-66
2020/12/23 11:22:40;;;;;;;11.50;6.87;;;;;;;5.06;87.17;98086.09;1655444;86;21188;-66
2020/12/23 11:25:08;;;;;;;14.53;7.12;;;;;;;5.19;86.79;98081.75;1655384;86;21590;-66
2020/12/23 11:27:36;;;;;;;16.02;6.47;;;;;;;5.05;87.24;98075.92;1655400;85;21274;-66
2020/12/23 11:30:06;;;;;;;13.90;5.80;;;;;;;5.14;87.38;98069.66;1655399;87;21184;-66
2020/12/23 11:32:34;;;;;;;12.45;7.03;;;;;;;5.14;87.06;98072.23;1655552;86;21188;-66
2020/12/23 11:35:02;;;;;;;12.03;5.95;;;;;;;5.00;88.22;98069.80;1657436;85;21199;-66
2020/12/23 11:37:32;;;;;;;13.60;6.72;;;;;;;5.06;88.18;98051.80;1661786;86;21603;-68
2020/12/23 11:40:00;;;;;;;13.18;6.95;;;;;;;5.09;88.29;98052.91;1662042;86;21179;-67
2020/12/23 11:42:28;;;;;;;12.98;6.42;;;;;;;5.21;87.46;98057.20;1661802;86;21243;-69
2020/12/23 11:45:00;;;;;;;15.38;7.40;;;;;;;5.13;87.41;98053.88;1661205;85;21183;-66
2020/12/23 11:47:41;;;;;;;12.82;6.25;;;;;;;5.13;87.93;98050.48;1661289;86;21156;-66
2020/12/23 11:50:10;;;;;;;13.38;7.25;;;;;;;5.32;87.16;98047.44;1661190;85;21184;-68
2020/12/23 11:52:38;;;;;;;12.33;6.78;;;;;;;5.36;87.34;98049.69;1661133;86;21192;-68
2020/12/23 11:55:06;;;;;;;13.70;7.15;;;;;;;5.50;87.12;98053.84;1661131;86;21184;-66
2020/12/23 11:57:38;;;;;;;12.95;6.08;;;;;;;5.46;87.13;98051.13;1661302;85;21188;-65